Time;durP1;ratioP1;P1;durP2;ratioP2;P2;SDS_P1;SDS_P2;PMS_P1;PMS_P2;Temp;Humidity;BMP_temperature;BMP_pressure;BME280_temperature;BME280_humidity;BME280_pressure;Samples;Min_cycle;Max_cycle;Signal;HPM_P1;HPM_P2
2023/12/31 00:00:25;;;;;;;2.87;1.77;;;;;;;6.75;100.00;100710.34;5053808;28;20434;-72
2023/12/31 00:02:52;;;;;;;2.30;0.90;;;;;;;6.75;100.00;100709.53;5051798;28;20870;-72
2023/12/31 00:05:19;;;;;;;3.80;1.03;;;;;;;6.77;100.00;100705.50;5034176;28;20487;-72
2023/12/31 00:07:46;;;;;;;1.77;0.63;;;;;;;6.77;100.00;100707.34;5035043;28;20504;-72
2023/12/31 00:10:12;;;;;;;2.40;0.90;;;;;;;6.82;100.00;100707.38;5033732;28;20532;-71
2023/12/31 00:12:39;;;;;;;1.90;0.77;;;;;;;6.82;100.00;100708.19;5039331;28;20439;-71
2023/12/31 00:15:06;;;;;;;1.67;0.50;;;;;;;6.81;100.00;100706.53;5039986;28;20878;-71
2023/12/31 00:17:34;;;;;;;4.20;1.23;;;;;;;6.80;100.00;100702.25;5034951;28;20535;-71
2023/12/31 00:20:00;;;;;;;2.00;0.87;;;;;;;6.85;100.00;100706.00;5039175;28;20522;-71
2023/12/31 00:22:27;;;;;;;2.07;0.90;;;;;;;6.89;100.00;100696.31;5042652;28;20443;-71
2023/12/31 00:24:54;;;;;;;5.20;0.90;;;;;;;6.95;100.00;100697.88;5040963;28;20568;-71
2023/12/31 00:27:21;;;;;;;5.00;0.97;;;;;;;7.02;100.00;100695.72;5041003;28;20517;-71
2023/12/31 00:29:47;;;;;;;3.30;0.90;;;;;;;7.01;100.00;100688.72;5041542;28;20524;-71
2023/12/31 00:32:15;;;;;;;2.10;1.00;;;;;;;7.00;100.00;100687.94;5043775;28;20526;-71
2023/12/31 00:34:43;;;;;;;2.10;0.70;;;;;;;7.00;100.00;100687.94;5044985;28;20553;-71
2023/12/31 00:37:09;;;;;;;1.90;0.60;;;;;;;7.02;100.00;100690.34;5044595;28;20522;-71
2023/12/31 00:39:36;;;;;;;3.60;1.23;;;;;;;7.00;100.00;100681.75;5041218;28;20441;-71
2023/12/31 00:42:02;;;;;;;2.57;0.87;;;;;;;6.93;100.00;100675.84;5044940;28;20438;-71
2023/12/31 00:44:29;;;;;;;1.90;0.70;;;;;;;6.88;100.00;100681.22;5041717;28;20962;-71
2023/12/31 00:46:56;;;;;;;2.20;0.80;;;;;;;6.86;100.00;100675.31;5045312;28;20484;-71
2023/12/31 00:49:22;;;;;;;2.00;0.70;;;;;;;6.79;100.00;100675.59;5044840;28;20466;-71
2023/12/31 00:51:50;;;;;;;1.80;0.70;;;;;;;6.71;100.00;100674.25;5042614;28;20444;-71
2023/12/31 00:54:17;;;;;;;1.90;0.70;;;;;;;6.65;100.00;100671.88;5043643;28;20458;-71
2023/12/31 00:56:44;;;;;;;2.30;0.70;;;;;;;6.53;100.00;100672.97;5040635;28;20434;-71
2023/12/31 00:59:10;;;;;;;2.00;0.70;;;;;;;6.51;100.00;100668.94;5040894;28;20434;-71
2023/12/31 01:01:37;;;;;;;2.80;0.80;;;;;;;6.41;100.00;100661.66;5046108;28;20861;-71
2023/12/31 01:04:04;;;;;;;2.37;0.97;;;;;;;6.35;100.00;100664.66;5041535;28;20541;-71
2023/12/31 01:06:30;;;;;;;2.33;0.77;;;;;;;6.30;100.00;100658.19;5040548;28;20470;-71
2023/12/31 01:08:59;;;;;;;3.73;0.80;;;;;;;6.25;100.00;100657.41;5042416;28;20526;-71
2023/12/31 01:11:27;;;;;;;1.80;0.73;;;;;;;6.21;100.00;100659.81;5042260;28;20437;-71
2023/12/31 01:13:54;;;;;;;3.13;0.93;;;;;;;6.14;100.00;100659.28;5040263;28;20974;-71
2023/12/31 01:16:20;;;;;;;2.33;0.83;;;;;;;6.06;100.00;100663.31;5040924;28;20436;-71
2023/12/31 01:18:47;;;;;;;1.60;0.50;;;;;;;5.97;100.00;100650.66;5043965;28;20930;-70
2023/12/31 01:21:14;;;;;;;1.70;0.50;;;;;;;5.85;100.00;100648.22;5044528;28;20441;-71
2023/12/31 01:23:40;;;;;;;2.70;1.27;;;;;;;5.75;100.00;100646.31;5048473;28;20431;-71
2023/12/31 01:26:08;;;;;;;1.63;0.43;;;;;;;5.66;100.00;100637.16;5048473;28;20554;-72
2023/12/31 01:28:35;;;;;;;1.60;0.50;;;;;;;5.60;100.00;100640.13;5045315;28;20934;-72
2023/12/31 01:31:02;;;;;;;1.90;0.90;;;;;;;5.52;100.00;100641.44;5042145;28;20989;-71
2023/12/31 01:33:28;;;;;;;5.60;1.27;;;;;;;5.39;100.00;100636.59;5048717;28;20500;-71
2023/12/31 01:35:55;;;;;;;1.60;0.40;;;;;;;5.38;100.00;100634.97;5043378;28;20537;-71
2023/12/31 01:38:23;;;;;;;2.20;1.10;;;;;;;5.25;100.00;100642.47;5048361;28;20490;-72
2023/12/31 01:40:53;;;;;;;1.60;0.50;;;;;;;5.22;100.00;100639.50;5045585;28;20459;-71
2023/12/31 01:43:21;;;;;;;1.97;0.60;;;;;;;5.20;100.00;100645.13;5045858;28;20438;-72
2023/12/31 01:45:48;;;;;;;2.37;0.90;;;;;;;5.12;100.00;100640.25;5044052;28;20473;-71
2023/12/31 01:48:16;;;;;;;1.60;0.40;;;;;;;5.03;100.00;100639.16;5043683;28;20853;-71
2023/12/31 01:50:43;;;;;;;1.70;0.50;;;;;;;4.97;100.00;100630.28;5044370;28;20441;-71
2023/12/31 01:53:10;;;;;;;2.07;0.90;;;;;;;4.90;100.00;100626.22;5047416;28;21012;-71
2023/12/31 01:55:37;;;;;;;3.20;0.87;;;;;;;4.85;100.00;100628.88;5047618;28;20544;-71
2023/12/31 01:58:04;;;;;;;1.80;0.60;;;;;;;4.77;100.00;100624.81;5045159;28;20527;-71
2023/12/31 02:00:32;;;;;;;1.73;0.50;;;;;;;4.81;100.00;100625.91;5046374;28;20485;-71
2023/12/31 02:03:00;;;;;;;2.10;0.80;;;;;;;4.77;100.00;100619.44;5045480;28;20439;-71
2023/12/31 02:05:26;;;;;;;2.13;0.80;;;;;;;4.77;100.00;100617.56;5043557;28;20482;-71
2023/12/31 02:07:53;;;;;;;2.87;1.00;;;;;;;4.79;100.00;100610.09;5044872;28;20523;-71
2023/12/31 02:10:19;;;;;;;2.63;1.00;;;;;;;4.80;100.00;100614.38;5046420;28;20941;-71
2023/12/31 02:12:46;;;;;;;1.80;0.70;;;;;;;4.77;100.00;100614.88;5043949;28;20458;-71
2023/12/31 02:15:13;;;;;;;1.70;0.50;;;;;;;4.82;100.00;100603.38;5046122;28;20456;-71
2023/12/31 02:17:41;;;;;;;2.87;0.90;;;;;;;4.87;100.00;100602.59;5047427;28;20518;-71
2023/12/31 02:20:09;;;;;;;1.90;0.80;;;;;;;4.87;100.00;100610.63;5048148;28;20458;-71
2023/12/31 02:22:36;;;;;;;2.27;1.37;;;;;;;4.89;100.00;100605.84;5047205;28;20485;-71
2023/12/31 02:25:06;;;;;;;2.53;0.97;;;;;;;4.88;100.00;100605.03;5046253;28;20447;-71
2023/12/31 02:27:34;;;;;;;2.43;1.23;;;;;;;4.85;100.00;100594.81;5046690;28;20423;-71
2023/12/31 02:30:01;;;;;;;1.97;0.77;;;;;;;4.83;100.00;100594.28;5044083;28;20865;-71
2023/12/31 02:32:27;;;;;;;3.20;1.37;;;;;;;4.86;100.00;100595.63;5046553;28;20799;-71
2023/12/31 02:34:54;;;;;;;2.03;1.07;;;;;;;4.86;100.00;100592.94;5046345;28;20545;-72
2023/12/31 02:37:21;;;;;;;1.93;0.60;;;;;;;4.84;100.00;100587.84;5047296;28;20463;-71
2023/12/31 02:39:47;;;;;;;2.37;0.60;;;;;;;4.86;100.00;100596.41;5046896;28;20489;-72
2023/12/31 02:42:14;;;;;;;1.60;0.40;;;;;;;4.84;100.00;100592.41;5044133;28;20844;-70
2023/12/31 02:44:42;;;;;;;1.97;0.67;;;;;;;4.85;100.00;100589.44;5044723;28;20473;-70
2023/12/31 02:47:11;;;;;;;2.27;0.60;;;;;;;4.85;100.00;100583.28;5044882;28;20475;-70
2023/12/31 02:49:37;;;;;;;2.83;0.93;;;;;;;4.87;100.00;100570.38;5044532;28;20439;-71
2023/12/31 02:52:04;;;;;;;2.37;0.80;;;;;;;4.85;100.00;100569.84;5045954;28;20430;-71
2023/12/31 02:54:31;;;;;;;1.80;0.63;;;;;;;4.85;100.00;100572.53;5045844;28;20505;-71
2023/12/31 02:56:58;;;;;;;4.53;1.40;;;;;;;4.84;100.00;100577.09;5045994;28;20517;-71
2023/12/31 02:59:25;;;;;;;3.63;1.33;;;;;;;4.83;100.00;100559.38;5045214;28;20530;-70
2023/12/31 03:01:53;;;;;;;1.67;0.57;;;;;;;4.85;100.00;100561.81;5041647;28;20960;-70
2023/12/31 03:04:20;;;;;;;1.87;0.67;;;;;;;4.89;100.00;100555.66;5045413;28;20532;-70
2023/12/31 03:06:51;;;;;;;2.50;1.30;;;;;;;4.92;100.00;100548.94;5042554;28;20525;-71
2023/12/31 03:09:18;;;;;;;2.30;1.20;;;;;;;4.94;100.00;100554.84;5044980;28;20434;-71
2023/12/31 03:11:44;;;;;;;1.70;0.40;;;;;;;5.00;100.00;100548.41;5041973;28;20534;-71
2023/12/31 03:14:11;;;;;;;3.00;1.47;;;;;;;5.06;100.00;100550.88;5037074;28;21066;-71
2023/12/31 03:16:38;;;;;;;2.30;0.50;;;;;;;5.07;100.00;100546.28;5034932;28;20522;-71
2023/12/31 03:19:05;;;;;;;3.33;0.77;;;;;;;5.06;100.00;100544.69;5036085;28;20816;-71
2023/12/31 03:21:32;;;;;;;2.47;1.47;;;;;;;5.06;100.00;100536.63;5035215;28;20439;-71
2023/12/31 03:23:59;;;;;;;1.90;0.90;;;;;;;5.07;100.00;100535.56;5035591;28;20455;-71
2023/12/31 03:26:25;;;;;;;1.67;0.53;;;;;;;5.10;100.00;100537.72;5043007;28;20841;-71
2023/12/31 03:28:52;;;;;;;1.60;0.40;;;;;;;5.12;100.00;100535.56;5055060;28;20525;-71
2023/12/31 03:31:18;;;;;;;2.40;1.20;;;;;;;5.11;100.00;100539.31;5054645;28;20449;-71
2023/12/31 03:33:46;;;;;;;5.20;1.70;;;;;;;5.13;100.00;100537.16;5051009;28;20462;-71
2023/12/31 03:36:14;;;;;;;2.50;1.20;;;;;;;5.15;100.00;100536.94;5045237;28;20804;-71
2023/12/31 03:38:40;;;;;;;2.13;0.90;;;;;;;5.13;100.00;100531.00;5054132;28;20864;-71
2023/12/31 03:41:07;;;;;;;3.13;0.93;;;;;;;5.16;100.00;100530.47;5054709;28;20521;-71
2023/12/31 03:43:34;;;;;;;1.87;0.70;;;;;;;5.13;100.00;100526.44;5040773;28;20878;-71
2023/12/31 03:46:00;;;;;;;2.67;0.90;;;;;;;5.17;100.00;100524.03;5048417;28;20575;-71
2023/12/31 03:48:27;;;;;;;2.20;0.60;;;;;;;5.17;100.00;100521.34;5054343;28;20442;-71
2023/12/31 03:50:53;;;;;;;1.70;0.60;;;;;;;5.19;100.00;100520.00;5054268;28;20532;-71
2023/12/31 03:53:21;;;;;;;1.97;0.73;;;;;;;5.13;100.00;100510.31;5054369;28;20469;-71
2023/12/31 03:55:48;;;;;;;1.87;0.60;;;;;;;5.11;100.00;100507.13;5050142;28;20455;-71
2023/12/31 03:58:14;;;;;;;2.83;0.90;;;;;;;5.07;100.00;100506.84;5037164;28;20443;-71
2023/12/31 04:00:41;;;;;;;4.20;0.60;;;;;;;5.09;100.00;100508.44;5034045;28;20893;-71
2023/12/31 04:03:08;;;;;;;2.67;0.83;;;;;;;5.08;100.00;100496.91;5034334;28;20467;-71
2023/12/31 04:05:34;;;;;;;2.20;0.90;;;;;;;5.01;100.00;100499.06;5035264;28;20448;-71
2023/12/31 04:08:01;;;;;;;2.50;0.90;;;;;;;5.04;100.00;100502.00;5034521;28;20453;-71
2023/12/31 04:10:29;;;;;;;1.80;0.73;;;;;;;5.02;100.00;100498.78;5033901;28;20911;-70
2023/12/31 04:12:55;;;;;;;1.60;0.50;;;;;;;4.96;100.00;100496.38;5033932;28;20471;-70
2023/12/31 04:15:22;;;;;;;1.90;0.70;;;;;;;4.98;100.00;100496.88;5034627;28;20542;-72
2023/12/31 04:17:49;;;;;;;1.70;0.60;;;;;;;4.91;100.00;100496.31;5044160;28;20431;-71
2023/12/31 04:20:15;;;;;;;3.00;0.97;;;;;;;4.85;100.00;100500.88;5033761;28;20443;-71
2023/12/31 04:22:42;;;;;;;2.53;0.90;;;;;;;4.81;100.00;100492.56;5033798;28;20439;-71
2023/12/31 04:25:09;;;;;;;2.67;1.20;;;;;;;4.89;100.00;100482.38;5033645;28;20495;-71
2023/12/31 04:27:40;;;;;;;1.67;0.50;;;;;;;4.92;100.00;100471.13;5034408;28;20840;-71
2023/12/31 04:30:07;;;;;;;1.93;0.73;;;;;;;4.99;100.00;100466.28;5037713;28;20477;-71
2023/12/31 04:32:34;;;;;;;1.57;0.43;;;;;;;5.02;100.00;100466.56;5033662;28;20539;-71
2023/12/31 04:35:01;;;;;;;2.03;0.83;;;;;;;5.11;100.00;100461.47;5033124;28;20558;-72
2023/12/31 04:37:27;;;;;;;1.83;0.70;;;;;;;5.23;100.00;100466.59;5033617;28;20475;-69
2023/12/31 04:39:54;;;;;;;2.80;0.60;;;;;;;5.36;100.00;100463.38;5040403;28;20521;-70
2023/12/31 04:42:21;;;;;;;3.07;1.50;;;;;;;5.46;100.00;100466.03;5036562;28;20860;-70
2023/12/31 04:44:49;;;;;;;3.20;1.03;;;;;;;5.48;100.00;100455.81;5035183;28;20530;-70
2023/12/31 04:47:15;;;;;;;2.10;0.87;;;;;;;5.55;100.00;100458.25;5033560;28;20483;-70
2023/12/31 04:49:43;;;;;;;2.10;0.70;;;;;;;5.61;100.00;100461.72;5042975;28;20521;-70
2023/12/31 04:52:09;;;;;;;2.23;0.70;;;;;;;5.67;100.00;100461.47;5053452;28;20525;-70
2023/12/31 04:54:36;;;;;;;1.90;0.60;;;;;;;5.68;100.00;100452.31;5052744;28;20982;-70
2023/12/31 04:57:03;;;;;;;7.63;1.70;;;;;;;5.72;100.00;100447.22;5044475;28;20428;-70
2023/12/31 04:59:30;;;;;;;2.10;0.90;;;;;;;5.72;100.00;100436.47;5038215;28;20509;-70
2023/12/31 05:01:58;;;;;;;3.90;1.63;;;;;;;5.75;100.00;100431.31;5034440;28;20439;-71
2023/12/31 05:04:25;;;;;;;2.50;0.93;;;;;;;5.77;100.00;100434.56;5033827;28;20473;-70
2023/12/31 05:06:51;;;;;;;2.33;1.00;;;;;;;5.78;100.00;100433.47;5041941;28;20481;-71
2023/12/31 05:09:18;;;;;;;2.23;1.07;;;;;;;5.78;100.00;100428.09;5033196;28;20444;-71
2023/12/31 05:11:45;;;;;;;2.00;0.60;;;;;;;5.77;100.00;100423.00;5040202;28;20438;-71
2023/12/31 05:14:12;;;;;;;1.70;0.63;;;;;;;5.81;100.00;100434.81;5052779;28;20978;-70
2023/12/31 05:16:38;;;;;;;1.90;0.73;;;;;;;5.88;100.00;100431.84;5038550;28;20432;-71
2023/12/31 05:19:06;;;;;;;2.93;1.10;;;;;;;5.92;100.00;100427.56;5032909;28;20441;-71
2023/12/31 05:21:33;;;;;;;2.43;0.83;;;;;;;5.96;100.00;100425.94;5033181;28;20492;-71
2023/12/31 05:24:00;;;;;;;1.70;0.60;;;;;;;6.04;100.00;100428.06;5037967;28;20462;-71
2023/12/31 05:26:27;;;;;;;2.97;0.83;;;;;;;6.07;100.00;100419.44;5052406;28;20477;-71
2023/12/31 05:28:53;;;;;;;2.37;0.67;;;;;;;6.08;100.00;100413.00;5052401;28;20522;-72
2023/12/31 05:31:20;;;;;;;2.20;1.03;;;;;;;6.11;100.00;100415.13;5052857;28;20442;-71
2023/12/31 05:33:47;;;;;;;3.40;0.90;;;;;;;6.13;100.00;100412.97;5052262;28;20928;-72
2023/12/31 05:36:15;;;;;;;1.70;0.60;;;;;;;6.19;100.00;100414.53;5041916;28;20424;-72
2023/12/31 05:38:42;;;;;;;1.60;0.43;;;;;;;6.19;100.00;100400.28;5045794;28;20442;-75
2023/12/31 05:41:09;;;;;;;1.80;0.50;;;;;;;6.25;100.00;100399.22;5052812;28;20448;-72
2023/12/31 05:43:35;;;;;;;2.20;1.10;;;;;;;6.30;100.00;100402.66;5041937;28;20525;-72
2023/12/31 05:46:02;;;;;;;1.60;0.40;;;;;;;6.32;100.00;100408.56;5039579;28;20511;-72
2023/12/31 05:48:29;;;;;;;2.10;1.00;;;;;;;6.39;100.00;100402.09;5041742;28;20900;-72
2023/12/31 05:50:55;;;;;;;1.70;0.60;;;;;;;6.45;100.00;100401.75;5051679;28;20438;-72
2023/12/31 05:53:23;;;;;;;1.70;0.60;;;;;;;6.46;100.00;100394.50;5052868;28;20500;-72
2023/12/31 05:55:51;;;;;;;1.90;0.80;;;;;;;6.50;100.00;100390.16;5051701;28;20549;-72
2023/12/31 05:58:18;;;;;;;2.43;0.90;;;;;;;6.50;100.00;100390.16;5042186;28;20489;-72
2023/12/31 06:00:44;;;;;;;1.83;0.60;;;;;;;6.50;100.00;100382.09;5033855;28;20430;-72
2023/12/31 06:03:11;;;;;;;2.57;0.93;;;;;;;6.48;100.00;100384.28;5035878;28;20470;-72
2023/12/31 06:05:38;;;;;;;2.47;0.90;;;;;;;6.52;100.00;100380.75;5032675;28;20985;-72
2023/12/31 06:08:05;;;;;;;2.10;0.83;;;;;;;6.54;100.00;100383.16;5049117;28;20539;-73
2023/12/31 06:10:33;;;;;;;1.60;0.40;;;;;;;6.58;100.00;100370.75;5037087;28;20573;-73
2023/12/31 06:13:00;;;;;;;1.70;0.50;;;;;;;6.62;100.00;100362.94;5044388;28;20874;-73
2023/12/31 06:15:28;;;;;;;2.10;0.90;;;;;;;6.64;100.00;100372.34;5036359;28;20553;-73
2023/12/31 06:17:54;;;;;;;2.00;0.67;;;;;;;6.58;100.00;100379.63;5040561;28;20521;-73
2023/12/31 06:20:21;;;;;;;1.90;0.67;;;;;;;6.56;100.00;100370.25;5055886;28;20442;-73
2023/12/31 06:22:48;;;;;;;1.90;0.63;;;;;;;6.53;100.00;100373.47;5050988;28;20874;-73
2023/12/31 06:25:14;;;;;;;2.37;0.90;;;;;;;6.48;100.00;100378.91;5055610;28;20557;-73
2023/12/31 06:27:42;;;;;;;1.80;0.50;;;;;;;6.47;100.00;100388.84;5055875;28;20482;-72
2023/12/31 06:30:09;;;;;;;2.43;1.03;;;;;;;6.48;100.00;100389.66;5055575;28;20883;-72
2023/12/31 06:32:36;;;;;;;2.00;0.80;;;;;;;6.52;100.00;100393.41;5055956;28;20464;-72
2023/12/31 06:35:03;;;;;;;2.47;0.70;;;;;;;6.49;100.00;100384.00;5048321;28;20524;-72
2023/12/31 06:37:30;;;;;;;2.10;0.90;;;;;;;6.50;100.00;100382.91;5035771;28;20538;-72
2023/12/31 06:39:57;;;;;;;2.67;0.77;;;;;;;6.46;100.00;100384.56;5035764;28;20533;-72
2023/12/31 06:42:23;;;;;;;1.80;0.60;;;;;;;6.47;100.00;100371.91;5050422;28;20442;-72
2023/12/31 06:44:51;;;;;;;1.80;0.60;;;;;;;6.43;100.00;100368.97;5053838;28;20457;-73
2023/12/31 06:47:18;;;;;;;3.20;1.23;;;;;;;6.43;100.00;100366.28;5046902;28;20509;-73
2023/12/31 06:49:44;;;;;;;2.77;1.23;;;;;;;6.39;100.00;100370.59;5055254;28;20529;-73
2023/12/31 06:52:13;;;;;;;1.70;0.60;;;;;;;6.41;100.00;100370.31;5036334;28;20435;-73
2023/12/31 06:54:40;;;;;;;1.93;0.70;;;;;;;6.43;100.00;100370.88;5035086;28;20463;-73
2023/12/31 06:57:07;;;;;;;3.17;1.07;;;;;;;6.44;100.00;100372.47;5035787;28;20435;-73
2023/12/31 06:59:34;;;;;;;1.93;0.70;;;;;;;6.45;100.00;100360.63;5035750;28;20891;-73
2023/12/31 07:02:02;;;;;;;1.80;0.60;;;;;;;6.43;100.00;100366.28;5041159;28;20863;-73
2023/12/31 07:04:29;;;;;;;2.10;0.80;;;;;;;6.42;100.00;100361.16;5055447;28;20549;-73
2023/12/31 07:06:55;;;;;;;1.70;0.60;;;;;;;6.50;100.00;100356.00;5050581;28;20482;-73
2023/12/31 07:09:22;;;;;;;2.30;1.17;;;;;;;6.50;100.00;100350.63;5055255;28;20542;-72
2023/12/31 07:11:49;;;;;;;1.70;0.50;;;;;;;6.54;100.00;100348.97;5050436;28;20518;-73
2023/12/31 07:14:15;;;;;;;1.93;0.60;;;;;;;6.57;100.00;100342.25;5046598;28;20493;-74
2023/12/31 07:16:42;;;;;;;2.00;0.70;;;;;;;6.52;100.00;100331.53;5037251;28;20618;-73
2023/12/31 07:19:10;;;;;;;4.13;1.20;;;;;;;6.53;100.00;100333.91;5054577;28;20520;-72
2023/12/31 07:21:37;;;;;;;2.03;0.80;;;;;;;6.55;100.00;100328.25;5055139;28;20481;-72
2023/12/31 07:24:03;;;;;;;2.57;0.97;;;;;;;6.54;100.00;100323.97;5037527;28;20538;-72
2023/12/31 07:26:30;;;;;;;1.70;0.50;;;;;;;6.51;100.00;100325.34;5035011;28;20438;-72
2023/12/31 07:28:57;;;;;;;2.47;1.00;;;;;;;6.52;100.00;100336.91;5035029;28;20780;-72
2023/12/31 07:31:23;;;;;;;1.77;0.53;;;;;;;6.56;100.00;100321.81;5039311;28;20463;-72
2023/12/31 07:33:51;;;;;;;2.00;0.50;;;;;;;6.59;100.00;100323.91;5043292;28;20542;-72
2023/12/31 07:36:19;;;;;;;1.90;0.90;;;;;;;6.55;100.00;100321.00;5035009;28;20423;-71
2023/12/31 07:38:45;;;;;;;1.60;0.53;;;;;;;6.55;100.00;100318.31;5034749;28;20907;-70
2023/12/31 07:41:13;;;;;;;4.13;1.63;;;;;;;6.55;100.00;100314.78;5034324;28;20531;-70
2023/12/31 07:43:40;;;;;;;2.23;0.67;;;;;;;6.53;100.00;100314.28;5039370;28;20985;-71
2023/12/31 07:46:07;;;;;;;2.40;1.23;;;;;;;6.54;100.00;100319.38;5052834;28;20442;-71
2023/12/31 07:48:34;;;;;;;2.03;0.80;;;;;;;6.55;100.00;100320.19;5037723;28;20487;-71
2023/12/31 07:51:03;;;;;;;3.60;1.40;;;;;;;6.54;100.00;100323.97;5037693;28;20436;-71
2023/12/31 07:53:31;;;;;;;1.90;0.60;;;;;;;6.57;100.00;100318.03;5052046;28;20482;-71
2023/12/31 07:55:58;;;;;;;1.70;0.50;;;;;;;6.54;100.00;100315.88;5043812;28;20465;-71
2023/12/31 07:58:27;;;;;;;3.77;0.90;;;;;;;6.53;100.00;100327.75;5045973;28;20434;-71
2023/12/31 08:00:53;;;;;;;1.90;0.67;;;;;;;6.59;100.00;100329.28;5042638;28;20795;-71
2023/12/31 08:03:20;;;;;;;2.30;0.90;;;;;;;6.62;100.00;100320.66;5034007;28;20431;-71
2023/12/31 08:05:47;;;;;;;1.90;0.60;;;;;;;6.64;100.00;100323.91;5034385;28;20495;-71
2023/12/31 08:08:13;;;;;;;3.07;1.20;;;;;;;6.64;100.00;100323.91;5034284;28;20515;-70
2023/12/31 08:10:41;;;;;;;2.00;0.60;;;;;;;6.65;100.00;100325.50;5035831;28;20445;-70
2023/12/31 08:13:08;;;;;;;2.70;0.63;;;;;;;6.71;100.00;100312.81;5034801;28;20525;-69
2023/12/31 08:15:35;;;;;;;2.30;1.10;;;;;;;6.67;100.00;100317.94;5051167;28;20462;-69
2023/12/31 08:18:02;;;;;;;1.90;0.70;;;;;;;6.74;100.00;100323.00;5049904;28;20922;-69
2023/12/31 08:20:29;;;;;;;2.40;0.90;;;;;;;6.74;100.00;100321.13;5038584;28;20439;-69
2023/12/31 08:22:56;;;;;;;2.10;0.77;;;;;;;6.72;100.00;100320.59;5034474;28;20486;-69
2023/12/31 08:25:22;;;;;;;2.30;0.90;;;;;;;6.73;100.00;100322.22;5045980;28;20870;-69
2023/12/31 08:27:50;;;;;;;2.73;0.80;;;;;;;6.69;100.00;100321.16;5034009;28;20479;-69
2023/12/31 08:30:22;;;;;;;1.90;0.93;;;;;;;6.73;100.00;100324.91;5032910;28;20443;-71
2023/12/31 08:32:48;;;;;;;2.53;0.73;;;;;;;6.78;100.00;100314.09;5033503;28;20865;-71
2023/12/31 08:35:15;;;;;;;1.90;0.70;;;;;;;6.87;100.00;100313.50;5047480;28;20481;-71
2023/12/31 08:37:43;;;;;;;2.40;0.90;;;;;;;6.89;100.00;100311.31;5043072;28;20538;-71
2023/12/31 08:40:10;;;;;;;1.83;0.80;;;;;;;6.92;100.00;100305.34;5046789;28;20434;-71
2023/12/31 08:42:37;;;;;;;2.43;0.83;;;;;;;6.98;100.00;100306.91;5052044;28;20513;-71
2023/12/31 08:45:10;;;;;;;3.50;1.13;;;;;;;7.01;100.00;100312.53;5047712;28;20511;-71
2023/12/31 08:47:37;;;;;;;2.47;1.20;;;;;;;7.06;100.00;100303.59;5053874;28;20524;-71
2023/12/31 08:50:08;;;;;;;2.20;0.70;;;;;;;7.10;100.00;100299.25;5053910;28;20442;-71
2023/12/31 08:52:35;;;;;;;1.70;0.50;;;;;;;7.17;100.00;100298.91;5039447;28;20431;-71
2023/12/31 08:55:01;;;;;;;2.13;0.70;;;;;;;7.20;100.00;100301.84;5033788;28;20553;-71
2023/12/31 08:57:28;;;;;;;2.00;0.70;;;;;;;7.23;100.00;100303.97;5045667;28;20505;-71
2023/12/31 08:59:55;;;;;;;2.10;1.03;;;;;;;7.26;100.00;100298.03;5053461;28;20456;-71
2023/12/31 09:02:23;;;;;;;1.80;0.70;;;;;;;7.21;100.00;100298.03;5053282;28;20481;-71
2023/12/31 09:04:50;;;;;;;3.37;0.93;;;;;;;7.24;100.00;100294.78;5052322;28;20466;-71
2023/12/31 09:07:16;;;;;;;2.10;0.73;;;;;;;7.23;100.00;100287.81;5042749;28;20512;-71
2023/12/31 09:09:43;;;;;;;1.90;0.60;;;;;;;7.25;100.00;100290.22;5033851;28;20443;-71
2023/12/31 09:12:10;;;;;;;2.47;0.77;;;;;;;7.27;100.00;100288.84;5041373;28;20432;-71
2023/12/31 09:14:36;;;;;;;4.57;1.97;;;;;;;7.29;100.00;100289.34;5048390;28;20963;-71
2023/12/31 09:17:03;;;;;;;2.10;0.70;;;;;;;7.30;100.00;100287.44;5036344;28;20467;-72
2023/12/31 09:19:31;;;;;;;2.47;0.97;;;;;;;7.30;100.00;100285.59;5032845;28;20949;-71
2023/12/31 09:21:58;;;;;;;1.90;0.60;;;;;;;7.27;100.00;100271.88;5033280;28;20902;-71
2023/12/31 09:24:25;;;;;;;1.77;0.63;;;;;;;7.27;100.00;100272.69;5033181;28;20491;-71
2023/12/31 09:26:52;;;;;;;2.07;0.67;;;;;;;7.34;100.00;100265.03;5037568;28;20442;-71
2023/12/31 09:29:19;;;;;;;2.97;1.27;;;;;;;7.42;100.00;100278.97;5041150;28;20483;-71
2023/12/31 09:31:46;;;;;;;2.07;0.93;;;;;;;7.44;100.00;100277.63;5042591;28;20439;-71
2023/12/31 09:34:13;;;;;;;2.20;0.90;;;;;;;7.47;100.00;100265.44;5044264;28;20878;-71
2023/12/31 09:36:41;;;;;;;3.30;1.20;;;;;;;7.49;100.00;100272.16;5033052;28;20505;-71
2023/12/31 09:39:08;;;;;;;1.67;0.50;;;;;;;7.49;99.18;100268.66;5033348;28;20489;-72
2023/12/31 09:41:37;;;;;;;2.37;0.93;;;;;;;7.43;99.05;100259.81;5033128;28;20446;-70
2023/12/31 09:44:04;;;;;;;2.90;1.20;;;;;;;7.38;99.14;100256.38;5044073;28;20891;-71
2023/12/31 09:46:33;;;;;;;2.80;0.60;;;;;;;7.40;98.88;100252.34;5038250;28;20463;-72
2023/12/31 09:49:01;;;;;;;1.77;0.67;;;;;;;7.38;98.88;100240.22;5036609;28;20483;-70
2023/12/31 09:51:28;;;;;;;4.13;1.20;;;;;;;7.40;99.61;100240.75;5037161;28;20820;-72
2023/12/31 09:53:58;;;;;;;2.10;0.60;;;;;;;7.44;99.77;100228.31;5036060;28;20463;-72
2023/12/31 09:56:25;;;;;;;2.30;0.70;;;;;;;7.44;98.98;100229.13;5047256;28;20439;-73
2023/12/31 09:58:52;;;;;;;1.70;0.50;;;;;;;7.51;98.96;100226.84;5056903;28;20520;-72
2023/12/31 10:01:19;;;;;;;2.30;0.90;;;;;;;7.49;99.79;100215.56;5042084;28;20617;-72
2023/12/31 10:03:47;;;;;;;2.20;0.80;;;;;;;7.57;99.19;100212.22;5036924;28;20482;-72
2023/12/31 10:06:14;;;;;;;2.00;0.67;;;;;;;7.66;98.99;100198.91;5042312;28;20517;-72
2023/12/31 10:08:42;;;;;;;2.00;0.87;;;;;;;7.73;98.88;100198.53;5043061;28;21440;-71
2023/12/31 10:11:11;;;;;;;2.23;0.93;;;;;;;7.75;98.95;100196.38;5051628;28;20439;-71
2023/12/31 10:13:38;;;;;;;2.23;0.87;;;;;;;7.74;98.57;100184.75;5046782;28;21018;-71
2023/12/31 10:16:12;;;;;;;2.43;0.73;;;;;;;7.77;98.64;100173.38;5042396;28;20442;-71
2023/12/31 10:18:39;;;;;;;1.90;0.70;;;;;;;7.80;98.58;100159.34;5043647;28;20427;-71
2023/12/31 10:21:08;;;;;;;3.20;1.30;;;;;;;7.81;98.06;100158.22;5044277;28;20435;-70
2023/12/31 10:23:35;;;;;;;1.90;0.60;;;;;;;7.82;98.21;100148.25;5036284;28;20479;-70
2023/12/31 10:26:01;;;;;;;3.50;0.97;;;;;;;7.86;98.12;100151.97;5045047;28;20467;-72
2023/12/31 10:28:29;;;;;;;3.20;1.17;;;;;;;7.88;97.45;100154.34;5052466;28;21061;-72
2023/12/31 10:30:56;;;;;;;3.13;1.03;;;;;;;7.88;97.23;100154.34;5045460;28;20478;-72
2023/12/31 10:33:28;;;;;;;2.50;0.77;;;;;;;7.86;96.47;100164.66;5037613;28;20438;-72
2023/12/31 10:36:03;;;;;;;2.07;0.83;;;;;;;7.91;96.64;100145.69;5055322;28;20942;-72
2023/12/31 10:38:30;;;;;;;2.63;0.80;;;;;;;7.84;96.16;100133.38;5055752;28;20513;-73
2023/12/31 10:41:09;;;;;;;2.33;0.70;;;;;;;7.89;96.15;100135.22;5050696;28;20521;-73
2023/12/31 10:43:40;;;;;;;3.00;1.00;;;;;;;7.89;96.75;100123.63;5036554;28;20423;-72
2023/12/31 10:46:08;;;;;;;2.63;1.17;;;;;;;7.95;96.67;100127.81;5048865;28;20427;-71
2023/12/31 10:48:39;;;;;;;3.47;0.87;;;;;;;8.01;96.36;100127.47;5036713;28;20489;-72
2023/12/31 10:51:09;;;;;;;3.10;1.13;;;;;;;8.05;96.22;100124.94;5052343;28;20464;-72
2023/12/31 10:53:39;;;;;;;1.90;0.60;;;;;;;8.11;96.08;100110.31;5053743;28;20431;-73
2023/12/31 10:56:07;;;;;;;2.10;0.60;;;;;;;8.13;95.14;100110.78;5035972;28;20431;-72
2023/12/31 10:58:34;;;;;;;2.27;0.83;;;;;;;8.13;94.82;100110.78;5038308;28;20439;-72
2023/12/31 11:01:03;;;;;;;2.70;0.93;;;;;;;8.17;94.37;100105.63;5035346;28;20447;-72
2023/12/31 11:03:33;;;;;;;1.97;0.70;;;;;;;8.23;93.82;100099.03;5047274;28;20449;-72
2023/12/31 11:06:03;;;;;;;2.30;0.90;;;;;;;8.29;93.63;100095.94;5048109;28;20435;-72
2023/12/31 11:08:30;;;;;;;2.07;0.70;;;;;;;8.36;93.36;100090.16;5043261;28;20549;-72
2023/12/31 11:10:57;;;;;;;1.80;0.60;;;;;;;8.27;93.32;100081.94;5044470;28;20808;-72
2023/12/31 11:13:26;;;;;;;2.10;1.13;;;;;;;8.37;93.75;100081.00;5044803;28;20450;-72
2023/12/31 11:15:56;;;;;;;2.30;0.83;;;;;;;8.41;92.93;100083.88;5043887;28;21032;-72
2023/12/31 11:18:51;;;;;;;2.10;0.90;;;;;;;8.45;92.35;100074.09;5043941;28;20419;-73
2023/12/31 11:21:45;;;;;;;3.13;0.63;;;;;;;8.52;92.62;100074.50;5044704;28;20432;-72
2023/12/31 11:24:16;;;;;;;2.00;0.83;;;;;;;8.53;93.41;100073.41;5042000;28;20463;-73
2023/12/31 11:26:43;;;;;;;2.10;1.00;;;;;;;8.56;93.49;100067.41;5044745;28;20542;-73